createdAt,value
2017-10-25T00:00:09.276Z,74419.20
2017-10-25T00:01:09.301Z,74420.79
2017-10-25T00:02:09.323Z,74422.29
2017-10-25T00:03:09.348Z,74420.76
2017-10-25T00:04:09.369Z,74423.76
2017-10-25T00:05:09.393Z,74423.73
2017-10-25T00:06:09.418Z,74424.80
2017-10-25T00:07:09.440Z,74420.30
2017-10-25T00:08:09.465Z,74414.81
2017-10-25T00:09:09.494Z,74418.47
2017-10-25T00:10:09.512Z,74419.73
2017-10-25T00:11:09.535Z,74418.41
2017-10-25T00:12:09.558Z,74419.81
2017-10-25T00:13:09.583Z,74419.32
2017-10-25T00:14:09.606Z,74419.12
2017-10-25T00:15:09.630Z,74419.97
2017-10-25T00:16:09.652Z,74420.22
2017-10-25T00:17:09.676Z,74418.99
2017-10-25T00:18:09.699Z,74418.47
2017-10-25T00:19:09.724Z,74418.30
2017-10-25T00:20:09.759Z,74418.86
2017-10-25T00:21:09.771Z,74418.63
2017-10-25T00:22:09.795Z,74419.05
2017-10-25T00:23:09.818Z,74419.90
2017-10-25T00:24:09.841Z,74417.27
2017-10-25T00:25:09.865Z,74415.76
2017-10-25T00:26:09.892Z,74415.33
2017-10-25T00:27:09.912Z,74414.84
2017-10-25T00:28:09.936Z,74414.02
2017-10-25T00:29:09.959Z,74416.68
2017-10-25T00:30:09.983Z,74416.27
2017-10-25T00:31:10.107Z,74416.34
2017-10-25T00:32:10.035Z,74414.45
2017-10-25T00:33:10.055Z,74415.97
2017-10-25T00:34:10.078Z,74415.43
2017-10-25T00:35:10.102Z,74418.21
2017-10-25T00:36:10.126Z,74414.09
2017-10-25T00:37:10.154Z,74416.44
2017-10-25T00:38:10.174Z,74416.79
2017-10-25T00:39:10.197Z,74419.97
2017-10-25T00:40:10.219Z,74420.77
2017-10-25T00:41:10.249Z,74423.98
2017-10-25T00:42:10.267Z,74422.28
